SDM6445 ULLI-ULMK
Flight info
| Callsign | SDM6445 |
|---|---|
| Flight time | 1h 30m |
| Altitude | 35000 |
| Route | N0450F350 RELNI T693 NOKEZ M613 MOVIT T747 ARMAD |
| Aircraft | SU95/M-V/N |
Departure
| Time | 2026-04-21 15:25 |
|---|---|
| Airport | Pulkovo Airport (ULLI) |
Arrival
| Time | 2026-04-21 16:55 |
|---|---|
| Airport | Kirovsk-Apatity Airport (ULMK) |
| Time | Latitude | Longitude | Altitude | Speed | Heading |
|---|---|---|---|---|---|
| 2026-04-21 15:12 | 59.79935 | 30.26373 | 81 ft | 0 kts | 286° |
| 2026-04-21 15:20 | 59.79936 | 30.26368 | 81 ft | 2 kts | 286° |
| 2026-04-21 15:20 | 59.79943 | 30.26324 | 61 ft | 8 kts | 287° |
| 2026-04-21 15:20 | 59.79929 | 30.26221 | 73 ft | 9 kts | 199° |
| 2026-04-21 15:20 | 59.79868 | 30.26185 | 76 ft | 10 kts | 197° |
| 2026-04-21 15:21 | 59.79800 | 30.26144 | 67 ft | 11 kts | 196° |
| 2026-04-21 15:21 | 59.79724 | 30.26100 | 70 ft | 12 kts | 197° |
| 2026-04-21 15:21 | 59.79646 | 30.26034 | 81 ft | 12 kts | 210° |
| 2026-04-21 15:21 | 59.79565 | 30.25995 | 81 ft | 12 kts | 161° |
| 2026-04-21 15:22 | 59.79536 | 30.26104 | 82 ft | 9 kts | 111° |
| 2026-04-21 15:22 | 59.79514 | 30.26241 | 79 ft | 11 kts | 109° |
| 2026-04-21 15:22 | 59.79489 | 30.26395 | 78 ft | 12 kts | 107° |
| 2026-04-21 15:22 | 59.79463 | 30.26578 | 80 ft | 15 kts | 105° |
| 2026-04-21 15:23 | 59.79430 | 30.26796 | 78 ft | 18 kts | 106° |
| 2026-04-21 15:23 | 59.79395 | 30.27054 | 82 ft | 21 kts | 105° |
| 2026-04-21 15:23 | 59.79351 | 30.27343 | 81 ft | 23 kts | 107° |
| 2026-04-21 15:23 | 59.79303 | 30.27664 | 82 ft | 25 kts | 107° |
| 2026-04-21 15:24 | 59.79252 | 30.28012 | 85 ft | 26 kts | 106° |
| 2026-04-21 15:24 | 59.79148 | 30.28230 | 83 ft | 23 kts | 177° |
| 2026-04-21 15:24 | 59.79053 | 30.28176 | 82 ft | 12 kts | 263° |
| 2026-04-21 15:24 | 59.79060 | 30.28077 | 80 ft | 0 kts | 287° |
| 2026-04-21 15:25 | 59.79079 | 30.27956 | 80 ft | 39 kts | 288° |
| 2026-04-21 15:25 | 59.79237 | 30.26904 | 77 ft | 117 kts | 287° |
| 2026-04-21 15:25 | 59.79531 | 30.24978 | 223 ft | 164 kts | 288° |
| 2026-04-21 15:25 | 59.79854 | 30.22772 | 903 ft | 170 kts | 287° |
| 2026-04-21 15:26 | 59.80148 | 30.20423 | 1723 ft | 181 kts | 287° |
| 2026-04-21 15:26 | 59.80454 | 30.17907 | 2390 ft | 195 kts | 287° |
| 2026-04-21 15:26 | 59.80850 | 30.15200 | 3007 ft | 211 kts | 291° |
| 2026-04-21 15:26 | 59.81327 | 30.12330 | 3651 ft | 227 kts | 291° |
| 2026-04-21 15:27 | 59.81828 | 30.09290 | 4562 ft | 234 kts | 290° |
| 2026-04-21 15:27 | 59.82307 | 30.06190 | 5575 ft | 235 kts | 289° |
| 2026-04-21 15:27 | 59.82774 | 30.03059 | 6582 ft | 237 kts | 291° |
| 2026-04-21 15:27 | 59.83619 | 30.00288 | 7452 ft | 236 kts | 320° |
| 2026-04-21 15:28 | 59.85032 | 29.98722 | 8356 ft | 234 kts | 349° |
| 2026-04-21 15:28 | 59.86618 | 29.98728 | 9294 ft | 233 kts | 15° |
| 2026-04-21 15:28 | 59.88188 | 29.99634 | 10231 ft | 236 kts | 17° |
| 2026-04-21 15:28 | 59.89770 | 30.00575 | 11087 ft | 239 kts | 17° |
| 2026-04-21 15:29 | 59.91359 | 30.01626 | 11945 ft | 242 kts | 27° |
| 2026-04-21 15:29 | 59.92674 | 30.03718 | 12754 ft | 247 kts | 51° |
| 2026-04-21 15:29 | 59.93402 | 30.06849 | 13586 ft | 256 kts | 76° |
| 2026-04-21 15:29 | 59.93339 | 30.10441 | 14324 ft | 268 kts | 101° |
| 2026-04-21 15:30 | 59.92811 | 30.14024 | 15090 ft | 270 kts | 102° |
| 2026-04-21 15:30 | 59.92250 | 30.17699 | 15567 ft | 288 kts | 103° |
| 2026-04-21 15:30 | 59.91456 | 30.21534 | 15885 ft | 310 kts | 109° |
| 2026-04-21 15:30 | 59.90534 | 30.25574 | 16247 ft | 327 kts | 109° |
| 2026-04-21 15:31 | 59.89608 | 30.29733 | 17023 ft | 329 kts | 106° |
| 2026-04-21 15:31 | 59.88934 | 30.34062 | 17833 ft | 327 kts | 97° |
| 2026-04-21 15:31 | 59.88607 | 30.38536 | 18590 ft | 326 kts | 89° |
| 2026-04-21 15:31 | 59.88491 | 30.43108 | 19004 ft | 339 kts | 88° |
| 2026-04-21 15:32 | 59.88364 | 30.47884 | 19446 ft | 349 kts | 88° |
| 2026-04-21 15:32 | 59.88223 | 30.52712 | 20178 ft | 350 kts | 89° |
| 2026-04-21 15:32 | 59.88076 | 30.57574 | 20866 ft | 354 kts | 89° |
| 2026-04-21 15:32 | 59.87935 | 30.62486 | 21551 ft | 355 kts | 86° |
| 2026-04-21 15:33 | 59.88166 | 30.67350 | 22209 ft | 352 kts | 73° |
| 2026-04-21 15:33 | 59.88942 | 30.71882 | 22866 ft | 350 kts | 61° |
| 2026-04-21 15:33 | 59.90197 | 30.76025 | 23544 ft | 351 kts | 54° |
| 2026-04-21 15:33 | 59.91559 | 30.80086 | 24111 ft | 353 kts | 54° |
| 2026-04-21 15:34 | 59.92921 | 30.84168 | 24716 ft | 355 kts | 54° |
| 2026-04-21 15:34 | 59.94287 | 30.88280 | 25306 ft | 356 kts | 55° |
| 2026-04-21 15:34 | 59.95656 | 30.92414 | 25885 ft | 358 kts | 55° |
| 2026-04-21 15:34 | 59.97029 | 30.96571 | 26431 ft | 360 kts | 55° |
| 2026-04-21 15:35 | 59.98408 | 31.00751 | 26979 ft | 361 kts | 55° |
| 2026-04-21 15:35 | 59.99793 | 31.04958 | 27523 ft | 363 kts | 55° |
| 2026-04-21 15:35 | 60.01183 | 31.09188 | 28036 ft | 365 kts | 56° |
| 2026-04-21 15:35 | 60.02580 | 31.13446 | 28539 ft | 367 kts | 56° |
| 2026-04-21 15:36 | 60.03983 | 31.17730 | 29025 ft | 369 kts | 56° |
| 2026-04-21 15:36 | 60.05388 | 31.22032 | 29501 ft | 370 kts | 56° |
| 2026-04-21 15:36 | 60.06801 | 31.26361 | 29963 ft | 372 kts | 56° |
| 2026-04-21 15:36 | 60.08217 | 31.30711 | 30363 ft | 375 kts | 56° |
| 2026-04-21 15:37 | 60.09126 | 31.33507 | 30548 ft | 378 kts | 56° |
| 2026-04-21 15:37 | 60.10566 | 31.37941 | 30845 ft | 382 kts | 56° |
| 2026-04-21 15:37 | 60.12019 | 31.42426 | 31159 ft | 385 kts | 56° |
| 2026-04-21 15:37 | 60.13464 | 31.46366 | 31428 ft | 388 kts | 48° |
| 2026-04-21 15:38 | 60.15342 | 31.50020 | 31711 ft | 392 kts | 39° |
| 2026-04-21 15:38 | 60.17250 | 31.52687 | 31959 ft | 395 kts | 32° |
| 2026-04-21 15:38 | 60.19784 | 31.55138 | 32246 ft | 401 kts | 25° |
| 2026-04-21 15:38 | 60.22327 | 31.57298 | 32532 ft | 404 kts | 25° |
| 2026-04-21 15:39 | 60.24876 | 31.59481 | 32836 ft | 406 kts | 25° |
| 2026-04-21 15:39 | 60.27169 | 31.61453 | 33153 ft | 407 kts | 25° |
| 2026-04-21 15:39 | 60.29438 | 31.63411 | 33478 ft | 407 kts | 25° |
| 2026-04-21 15:39 | 60.31748 | 31.65407 | 33808 ft | 408 kts | 25° |
| 2026-04-21 15:40 | 60.34173 | 31.67504 | 34127 ft | 408 kts | 25° |
| 2026-04-21 15:40 | 60.36786 | 31.69765 | 34396 ft | 409 kts | 24° |
| 2026-04-21 15:40 | 60.39405 | 31.72034 | 34661 ft | 410 kts | 24° |
| 2026-04-21 15:40 | 60.42031 | 31.74313 | 34911 ft | 411 kts | 24° |
| 2026-04-21 15:41 | 60.44664 | 31.76603 | 35062 ft | 412 kts | 24° |
| 2026-04-21 15:41 | 60.47298 | 31.78897 | 35054 ft | 410 kts | 24° |
| 2026-04-21 15:41 | 60.52535 | 31.83469 | 35056 ft | 410 kts | 24° |
| 2026-04-21 15:42 | 60.57772 | 31.88058 | 35054 ft | 409 kts | 25° |
| 2026-04-21 15:42 | 60.62997 | 31.92653 | 35050 ft | 409 kts | 25° |
| 2026-04-21 15:43 | 60.68256 | 31.97051 | 35054 ft | 409 kts | 19° |
| 2026-04-21 15:43 | 60.73832 | 31.99527 | 35047 ft | 412 kts | 9° |
| 2026-04-21 15:44 | 60.79574 | 32.00135 | 35048 ft | 413 kts | 5° |
| 2026-04-21 15:44 | 60.85320 | 32.00626 | 35052 ft | 413 kts | 5° |
| 2026-04-21 15:45 | 60.91065 | 32.01091 | 35049 ft | 413 kts | 5° |
| 2026-04-21 15:45 | 60.96814 | 32.01539 | 35045 ft | 413 kts | 5° |
| 2026-04-21 15:46 | 61.02540 | 32.01643 | 35047 ft | 415 kts | 2° |
| 2026-04-21 15:46 | 61.08310 | 32.01494 | 35048 ft | 415 kts | 2° |
| 2026-04-21 15:47 | 61.14085 | 32.01404 | 35045 ft | 415 kts | 3° |
| 2026-04-21 15:47 | 61.19860 | 32.01346 | 35043 ft | 415 kts | 3° |
| 2026-04-21 15:48 | 61.25646 | 32.01293 | 35043 ft | 415 kts | 3° |
| 2026-04-21 15:48 | 61.31428 | 32.01233 | 35041 ft | 416 kts | 3° |
| 2026-04-21 15:49 | 61.37206 | 32.01164 | 35045 ft | 416 kts | 3° |
| 2026-04-21 15:49 | 61.43006 | 32.01095 | 35038 ft | 416 kts | 3° |
| 2026-04-21 15:50 | 61.48797 | 32.01027 | 35038 ft | 416 kts | 3° |
| 2026-04-21 15:50 | 61.54597 | 32.00960 | 35039 ft | 417 kts | 3° |
| 2026-04-21 15:51 | 61.60356 | 32.00892 | 35042 ft | 417 kts | 3° |
| 2026-04-21 15:51 | 61.66153 | 32.00824 | 35036 ft | 417 kts | 3° |
| 2026-04-21 15:52 | 61.71954 | 32.00755 | 35037 ft | 417 kts | 3° |
| 2026-04-21 15:52 | 61.77751 | 32.00686 | 35033 ft | 416 kts | 3° |
| 2026-04-21 15:53 | 61.83545 | 32.00617 | 35032 ft | 416 kts | 3° |
| 2026-04-21 15:53 | 61.89345 | 32.00530 | 35038 ft | 416 kts | 2° |
| 2026-04-21 15:54 | 61.95138 | 32.00380 | 35035 ft | 416 kts | 2° |
| 2026-04-21 15:54 | 62.00928 | 32.00232 | 35028 ft | 416 kts | 2° |
| 2026-04-21 15:55 | 62.06727 | 32.00089 | 35031 ft | 416 kts | 2° |
| 2026-04-21 15:55 | 62.12521 | 31.99948 | 35019 ft | 416 kts | 2° |
| 2026-04-21 15:56 | 62.18310 | 31.99808 | 35022 ft | 416 kts | 2° |
| 2026-04-21 15:56 | 62.24065 | 31.99667 | 35028 ft | 416 kts | 2° |
| 2026-04-21 15:57 | 62.29857 | 31.99520 | 35022 ft | 416 kts | 2° |
| 2026-04-21 15:57 | 62.35654 | 31.99350 | 35019 ft | 417 kts | 2° |
| 2026-04-21 15:58 | 62.41454 | 31.99178 | 35025 ft | 417 kts | 2° |
| 2026-04-21 15:58 | 62.47254 | 31.99009 | 35022 ft | 417 kts | 2° |
| 2026-04-21 15:59 | 62.53079 | 31.98840 | 35377 ft | 419 kts | 2° |
| 2026-04-21 15:59 | 62.55992 | 31.98755 | 35658 ft | 419 kts | 2° |
| 2026-04-21 15:59 | 62.58911 | 31.98670 | 35916 ft | 420 kts | 1° |
| 2026-04-21 16:00 | 62.61833 | 31.98584 | 36176 ft | 420 kts | 1° |
| 2026-04-21 16:00 | 62.64764 | 31.98498 | 36433 ft | 420 kts | 1° |
| 2026-04-21 16:00 | 62.67691 | 31.98411 | 36671 ft | 421 kts | 1° |
| 2026-04-21 16:00 | 62.70621 | 31.98325 | 36903 ft | 421 kts | 1° |
| 2026-04-21 16:01 | 62.73521 | 31.98239 | 37125 ft | 422 kts | 1° |
| 2026-04-21 16:01 | 62.76456 | 31.98135 | 37352 ft | 422 kts | 0° |
| 2026-04-21 16:01 | 62.79392 | 31.97989 | 37561 ft | 423 kts | 0° |
| 2026-04-21 16:01 | 62.82337 | 31.97833 | 37769 ft | 423 kts | 0° |
| 2026-04-21 16:02 | 62.85283 | 31.97683 | 37979 ft | 423 kts | 0° |
| 2026-04-21 16:02 | 62.88233 | 31.97542 | 38173 ft | 424 kts | 0° |
| 2026-04-21 16:02 | 62.91179 | 31.97405 | 38364 ft | 424 kts | 360° |
| 2026-04-21 16:02 | 62.94130 | 31.97269 | 38554 ft | 424 kts | 360° |
| 2026-04-21 16:03 | 62.97079 | 31.97133 | 38723 ft | 424 kts | 360° |
| 2026-04-21 16:03 | 63.00027 | 31.96997 | 38845 ft | 425 kts | 360° |
| 2026-04-21 16:03 | 63.02986 | 31.96859 | 38966 ft | 425 kts | 360° |
| 2026-04-21 16:03 | 63.05943 | 31.96722 | 39005 ft | 425 kts | 360° |
| 2026-04-21 16:04 | 63.11843 | 31.96445 | 39002 ft | 423 kts | 359° |
| 2026-04-21 16:04 | 63.17693 | 31.96170 | 38997 ft | 423 kts | 359° |
| 2026-04-21 16:05 | 63.23581 | 31.95892 | 38996 ft | 423 kts | 359° |
| 2026-04-21 16:05 | 63.29473 | 31.95612 | 38991 ft | 423 kts | 359° |
| 2026-04-21 16:06 | 63.35371 | 31.95448 | 38991 ft | 423 kts | 1° |
| 2026-04-21 16:06 | 63.41258 | 31.95766 | 38985 ft | 423 kts | 2° |
| 2026-04-21 16:07 | 63.47153 | 31.96116 | 38988 ft | 424 kts | 2° |
| 2026-04-21 16:07 | 63.52988 | 31.97727 | 38982 ft | 423 kts | 9° |
| 2026-04-21 16:08 | 63.61693 | 32.01132 | 38975 ft | 423 kts | 9° |
| 2026-04-21 16:09 | 63.67497 | 32.03403 | 38975 ft | 424 kts | 9° |
| 2026-04-21 16:09 | 63.73267 | 32.05671 | 38973 ft | 424 kts | 9° |
| 2026-04-21 16:10 | 63.79077 | 32.07964 | 38974 ft | 424 kts | 9° |
| 2026-04-21 16:10 | 63.84898 | 32.10272 | 38970 ft | 425 kts | 9° |
| 2026-04-21 16:11 | 63.90719 | 32.12590 | 38972 ft | 425 kts | 9° |
| 2026-04-21 16:11 | 63.96541 | 32.14918 | 38969 ft | 425 kts | 9° |
| 2026-04-21 16:12 | 64.01428 | 32.16880 | 38974 ft | 425 kts | 9° |
| 2026-04-21 16:12 | 64.08208 | 32.19613 | 38968 ft | 425 kts | 9° |
| 2026-04-21 16:13 | 64.14036 | 32.21973 | 38969 ft | 426 kts | 9° |
| 2026-04-21 16:13 | 64.19871 | 32.24346 | 38969 ft | 426 kts | 9° |
| 2026-04-21 16:14 | 64.25707 | 32.26730 | 38971 ft | 426 kts | 9° |
| 2026-04-21 16:14 | 64.31540 | 32.29122 | 38973 ft | 426 kts | 9° |
| 2026-04-21 16:15 | 64.37373 | 32.31525 | 38971 ft | 426 kts | 9° |
| 2026-04-21 16:15 | 64.43168 | 32.33923 | 38971 ft | 426 kts | 9° |
| 2026-04-21 16:16 | 64.49002 | 32.36348 | 38970 ft | 426 kts | 9° |
| 2026-04-21 16:16 | 64.54835 | 32.38782 | 38968 ft | 426 kts | 9° |
| 2026-04-21 16:17 | 64.60662 | 32.41224 | 38967 ft | 425 kts | 9° |
| 2026-04-21 16:17 | 64.66489 | 32.43677 | 38965 ft | 425 kts | 9° |
| 2026-04-21 16:18 | 64.72307 | 32.46137 | 38967 ft | 425 kts | 9° |
| 2026-04-21 16:18 | 64.78132 | 32.48611 | 38957 ft | 425 kts | 9° |
| 2026-04-21 16:19 | 64.83944 | 32.51090 | 38958 ft | 424 kts | 9° |
| 2026-04-21 16:19 | 64.89749 | 32.53577 | 38953 ft | 424 kts | 9° |
| 2026-04-21 16:20 | 64.95552 | 32.56074 | 38950 ft | 424 kts | 9° |
| 2026-04-21 16:20 | 65.01347 | 32.58579 | 38953 ft | 423 kts | 9° |
| 2026-04-21 16:21 | 65.07146 | 32.61096 | 38952 ft | 423 kts | 9° |
| 2026-04-21 16:21 | 65.12899 | 32.63605 | 38946 ft | 423 kts | 9° |
| 2026-04-21 16:22 | 65.17753 | 32.65730 | 38946 ft | 423 kts | 9° |
| 2026-04-21 16:22 | 65.24487 | 32.68692 | 38947 ft | 423 kts | 9° |
| 2026-04-21 16:23 | 65.30275 | 32.71249 | 38948 ft | 423 kts | 9° |
| 2026-04-21 16:23 | 65.36065 | 32.73819 | 38946 ft | 423 kts | 9° |
| 2026-04-21 16:24 | 65.41848 | 32.76397 | 38945 ft | 423 kts | 9° |
| 2026-04-21 16:24 | 65.47635 | 32.78989 | 38941 ft | 423 kts | 9° |
| 2026-04-21 16:25 | 65.53420 | 32.81592 | 38936 ft | 423 kts | 9° |
| 2026-04-21 16:25 | 65.59207 | 32.84207 | 38931 ft | 423 kts | 9° |
| 2026-04-21 16:26 | 65.64964 | 32.86821 | 38930 ft | 423 kts | 9° |
| 2026-04-21 16:26 | 65.70760 | 32.89462 | 38619 ft | 423 kts | 9° |
| 2026-04-21 16:26 | 65.73647 | 32.90867 | 38353 ft | 422 kts | 13° |
| 2026-04-21 16:27 | 65.76461 | 32.92889 | 38068 ft | 422 kts | 18° |
| 2026-04-21 16:27 | 65.79189 | 32.95557 | 37788 ft | 423 kts | 21° |
| 2026-04-21 16:27 | 65.81893 | 32.98364 | 37516 ft | 422 kts | 20° |
| 2026-04-21 16:27 | 65.84604 | 33.01126 | 37071 ft | 422 kts | 20° |
| 2026-04-21 16:28 | 65.87321 | 33.03899 | 36354 ft | 423 kts | 20° |
| 2026-04-21 16:28 | 65.89112 | 33.05740 | 35914 ft | 421 kts | 20° |
| 2026-04-21 16:28 | 65.91814 | 33.08535 | 35250 ft | 421 kts | 20° |
| 2026-04-21 16:28 | 65.94507 | 33.11335 | 34575 ft | 421 kts | 20° |
| 2026-04-21 16:29 | 65.97208 | 33.14155 | 33881 ft | 422 kts | 20° |
| 2026-04-21 16:29 | 65.99904 | 33.16979 | 33120 ft | 421 kts | 20° |
| 2026-04-21 16:29 | 66.02594 | 33.19804 | 32453 ft | 420 kts | 20° |
| 2026-04-21 16:29 | 66.05263 | 33.22615 | 31916 ft | 416 kts | 20° |
| 2026-04-21 16:30 | 66.07908 | 33.25406 | 31400 ft | 412 kts | 20° |
| 2026-04-21 16:30 | 66.10537 | 33.28184 | 30851 ft | 409 kts | 19° |
| 2026-04-21 16:30 | 66.13145 | 33.30946 | 30305 ft | 407 kts | 19° |
| 2026-04-21 16:30 | 66.15733 | 33.33694 | 29727 ft | 404 kts | 19° |
| 2026-04-21 16:31 | 66.18299 | 33.36425 | 29183 ft | 399 kts | 19° |
| 2026-04-21 16:31 | 66.20833 | 33.39129 | 28647 ft | 394 kts | 19° |
| 2026-04-21 16:31 | 66.23335 | 33.41803 | 28125 ft | 389 kts | 19° |
| 2026-04-21 16:31 | 66.25810 | 33.44455 | 27599 ft | 385 kts | 19° |
| 2026-04-21 16:32 | 66.28253 | 33.47076 | 27080 ft | 380 kts | 19° |
| 2026-04-21 16:32 | 66.30667 | 33.49672 | 26569 ft | 376 kts | 19° |
| 2026-04-21 16:32 | 66.33057 | 33.52248 | 26056 ft | 372 kts | 19° |
| 2026-04-21 16:32 | 66.35444 | 33.54591 | 25550 ft | 365 kts | 13° |
| 2026-04-21 16:33 | 66.37883 | 33.56032 | 25058 ft | 357 kts | 5° |
| 2026-04-21 16:33 | 66.40298 | 33.56584 | 24574 ft | 350 kts | 358° |
| 2026-04-21 16:33 | 66.42715 | 33.56458 | 24094 ft | 346 kts | 355° |
| 2026-04-21 16:33 | 66.45109 | 33.56304 | 23616 ft | 342 kts | 356° |
| 2026-04-21 16:34 | 66.47477 | 33.56166 | 23091 ft | 338 kts | 356° |
| 2026-04-21 16:34 | 66.49814 | 33.56026 | 22626 ft | 333 kts | 356° |
| 2026-04-21 16:34 | 66.52109 | 33.55881 | 22168 ft | 328 kts | 356° |
| 2026-04-21 16:34 | 66.54369 | 33.55733 | 21705 ft | 323 kts | 356° |
| 2026-04-21 16:35 | 66.56600 | 33.55583 | 21244 ft | 318 kts | 356° |
| 2026-04-21 16:35 | 66.58800 | 33.55434 | 20800 ft | 314 kts | 355° |
| 2026-04-21 16:35 | 66.60982 | 33.55284 | 20349 ft | 313 kts | 356° |
| 2026-04-21 16:35 | 66.63161 | 33.55133 | 19905 ft | 313 kts | 356° |
| 2026-04-21 16:36 | 66.65333 | 33.54984 | 19458 ft | 310 kts | 356° |
| 2026-04-21 16:36 | 66.67481 | 33.54837 | 19019 ft | 309 kts | 356° |
| 2026-04-21 16:36 | 66.69626 | 33.54690 | 18562 ft | 308 kts | 356° |
| 2026-04-21 16:36 | 66.71759 | 33.54544 | 18103 ft | 305 kts | 356° |
| 2026-04-21 16:37 | 66.73880 | 33.54399 | 17642 ft | 305 kts | 356° |
| 2026-04-21 16:37 | 66.75996 | 33.54253 | 17206 ft | 303 kts | 356° |
| 2026-04-21 16:37 | 66.78092 | 33.54109 | 16759 ft | 301 kts | 356° |
| 2026-04-21 16:37 | 66.80187 | 33.53964 | 16331 ft | 300 kts | 356° |
| 2026-04-21 16:38 | 66.82244 | 33.53821 | 15897 ft | 299 kts | 356° |
| 2026-04-21 16:38 | 66.84316 | 33.53677 | 15463 ft | 297 kts | 356° |
| 2026-04-21 16:38 | 66.86378 | 33.53533 | 15028 ft | 296 kts | 356° |
| 2026-04-21 16:38 | 66.88434 | 33.53390 | 14604 ft | 295 kts | 356° |
| 2026-04-21 16:39 | 66.90485 | 33.53247 | 14178 ft | 293 kts | 356° |
| 2026-04-21 16:39 | 66.92521 | 33.53104 | 13744 ft | 292 kts | 356° |
| 2026-04-21 16:39 | 66.94553 | 33.52961 | 13289 ft | 291 kts | 356° |
| 2026-04-21 16:39 | 66.96570 | 33.52820 | 12875 ft | 289 kts | 356° |
| 2026-04-21 16:40 | 66.98582 | 33.52680 | 12455 ft | 289 kts | 356° |
| 2026-04-21 16:40 | 67.00581 | 33.52540 | 12042 ft | 286 kts | 356° |
| 2026-04-21 16:40 | 67.02565 | 33.52401 | 11615 ft | 285 kts | 356° |
| 2026-04-21 16:40 | 67.04551 | 33.52261 | 11203 ft | 284 kts | 356° |
| 2026-04-21 16:41 | 67.06522 | 33.52122 | 10785 ft | 283 kts | 356° |
| 2026-04-21 16:41 | 67.08484 | 33.51983 | 10372 ft | 281 kts | 356° |
| 2026-04-21 16:41 | 67.10431 | 33.51846 | 10070 ft | 275 kts | 356° |
| 2026-04-21 16:41 | 67.12314 | 33.51714 | 9868 ft | 267 kts | 356° |
| 2026-04-21 16:42 | 67.14169 | 33.51583 | 9707 ft | 268 kts | 356° |
| 2026-04-21 16:42 | 67.16030 | 33.51192 | 9559 ft | 268 kts | 351° |
| 2026-04-21 16:42 | 67.17844 | 33.50638 | 9432 ft | 263 kts | 352° |
| 2026-04-21 16:42 | 67.19623 | 33.50111 | 9333 ft | 251 kts | 352° |
| 2026-04-21 16:43 | 67.21318 | 33.49614 | 9231 ft | 239 kts | 352° |
| 2026-04-21 16:43 | 67.22938 | 33.49137 | 9039 ft | 231 kts | 352° |
| 2026-04-21 16:43 | 67.24515 | 33.48670 | 8821 ft | 223 kts | 352° |
| 2026-04-21 16:43 | 67.26032 | 33.48219 | 8530 ft | 217 kts | 352° |
| 2026-04-21 16:44 | 67.27532 | 33.47769 | 8119 ft | 217 kts | 352° |
| 2026-04-21 16:44 | 67.29033 | 33.47319 | 7699 ft | 217 kts | 352° |
| 2026-04-21 16:44 | 67.30516 | 33.46876 | 7501 ft | 214 kts | 352° |
| 2026-04-21 16:44 | 67.31986 | 33.46435 | 7442 ft | 209 kts | 352° |
| 2026-04-21 16:45 | 67.33393 | 33.46015 | 7356 ft | 197 kts | 352° |
| 2026-04-21 16:45 | 67.34719 | 33.45622 | 7131 ft | 187 kts | 352° |
| 2026-04-21 16:45 | 67.36020 | 33.45231 | 6617 ft | 189 kts | 352° |
| 2026-04-21 16:45 | 67.37298 | 33.44607 | 6349 ft | 188 kts | 337° |
| 2026-04-21 16:46 | 67.38342 | 33.42588 | 6244 ft | 190 kts | 311° |
| 2026-04-21 16:46 | 67.39159 | 33.39844 | 6091 ft | 192 kts | 310° |
| 2026-04-21 16:46 | 67.39961 | 33.37153 | 5923 ft | 191 kts | 310° |
| 2026-04-21 16:46 | 67.40778 | 33.34430 | 5719 ft | 191 kts | 310° |
| 2026-04-21 16:47 | 67.41594 | 33.31719 | 5563 ft | 191 kts | 310° |
| 2026-04-21 16:47 | 67.42413 | 33.28995 | 5399 ft | 190 kts | 310° |
| 2026-04-21 16:47 | 67.43228 | 33.26282 | 5239 ft | 190 kts | 310° |
| 2026-04-21 16:47 | 67.44044 | 33.23566 | 5083 ft | 190 kts | 310° |
| 2026-04-21 16:48 | 67.44859 | 33.20846 | 4932 ft | 190 kts | 310° |
| 2026-04-21 16:48 | 67.45671 | 33.18130 | 4775 ft | 190 kts | 310° |
| 2026-04-21 16:48 | 67.46477 | 33.15434 | 4636 ft | 184 kts | 310° |
| 2026-04-21 16:48 | 67.47241 | 33.12867 | 4425 ft | 176 kts | 310° |
| 2026-04-21 16:49 | 67.47999 | 33.10324 | 4282 ft | 179 kts | 310° |
| 2026-04-21 16:49 | 67.48844 | 33.08084 | 4147 ft | 168 kts | 330° |
| 2026-04-21 16:49 | 67.49939 | 33.07366 | 3919 ft | 164 kts | 2° |
| 2026-04-21 16:49 | 67.51034 | 33.08364 | 3791 ft | 172 kts | 33° |
| 2026-04-21 16:50 | 67.51973 | 33.10301 | 3657 ft | 172 kts | 35° |
| 2026-04-21 16:50 | 67.52911 | 33.12242 | 3515 ft | 171 kts | 35° |
| 2026-04-21 16:50 | 67.53838 | 33.14144 | 3373 ft | 168 kts | 35° |
| 2026-04-21 16:50 | 67.54723 | 33.15953 | 3222 ft | 156 kts | 34° |
| 2026-04-21 16:51 | 67.55597 | 33.17729 | 3107 ft | 161 kts | 34° |
| 2026-04-21 16:51 | 67.56346 | 33.19895 | 2962 ft | 165 kts | 61° |
| 2026-04-21 16:51 | 67.56497 | 33.22848 | 2729 ft | 171 kts | 97° |
| 2026-04-21 16:51 | 67.56070 | 33.25746 | 2462 ft | 170 kts | 118° |
| 2026-04-21 16:52 | 67.55428 | 33.28202 | 2269 ft | 158 kts | 126° |
| 2026-04-21 16:52 | 67.54758 | 33.30433 | 2205 ft | 158 kts | 127° |
| 2026-04-21 16:52 | 67.54077 | 33.32698 | 2173 ft | 158 kts | 127° |
| 2026-04-21 16:52 | 67.53387 | 33.34904 | 2251 ft | 154 kts | 129° |
| 2026-04-21 16:53 | 67.52661 | 33.37123 | 2201 ft | 161 kts | 129° |
| 2026-04-21 16:53 | 67.51958 | 33.39321 | 1985 ft | 157 kts | 128° |
| 2026-04-21 16:53 | 67.51269 | 33.41550 | 1764 ft | 158 kts | 128° |
| 2026-04-21 16:53 | 67.50588 | 33.43843 | 1520 ft | 159 kts | 124° |
| 2026-04-21 16:54 | 67.49944 | 33.46175 | 1326 ft | 158 kts | 125° |
| 2026-04-21 16:54 | 67.49288 | 33.48470 | 1166 ft | 157 kts | 128° |
| 2026-04-21 16:54 | 67.48628 | 33.50728 | 1010 ft | 156 kts | 128° |
| 2026-04-21 16:54 | 67.47972 | 33.52969 | 849 ft | 155 kts | 129° |
| 2026-04-21 16:55 | 67.47307 | 33.55159 | 632 ft | 154 kts | 130° |
| 2026-04-21 16:55 | 67.46661 | 33.57346 | 490 ft | 146 kts | 129° |
| 2026-04-21 16:55 | 67.46099 | 33.59156 | 466 ft | 113 kts | 127° |
| 2026-04-21 16:55 | 67.45717 | 33.60372 | 459 ft | 44 kts | 128° |
| 2026-04-21 16:56 | 67.45594 | 33.60691 | 455 ft | 12 kts | 165° |
| 2026-04-21 16:56 | 67.45585 | 33.60819 | 442 ft | 5 kts | 360° |
| 2026-04-21 16:56 | 67.45597 | 33.60797 | 447 ft | 1 kts | 317° |
| 2026-04-21 16:56 | 67.45600 | 33.60791 | 447 ft | 1 kts | 317° |
| 2026-04-21 16:57 | 67.45627 | 33.60717 | 448 ft | 9 kts | 310° |
| 2026-04-21 16:57 | 67.45675 | 33.60561 | 451 ft | 13 kts | 308° |
| 2026-04-21 16:57 | 67.45734 | 33.60361 | 455 ft | 16 kts | 307° |
| 2026-04-21 16:57 | 67.45809 | 33.60100 | 454 ft | 20 kts | 307° |
| 2026-04-21 16:58 | 67.45898 | 33.59787 | 445 ft | 23 kts | 305° |
| 2026-04-21 16:58 | 67.45996 | 33.59472 | 464 ft | 23 kts | 315° |
| 2026-04-21 16:58 | 67.46104 | 33.59143 | 466 ft | 22 kts | 307° |
| 2026-04-21 16:58 | 67.46192 | 33.58804 | 470 ft | 20 kts | 302° |
| 2026-04-21 16:59 | 67.46168 | 33.58574 | 468 ft | 12 kts | 229° |
| 2026-04-21 16:59 | 67.46087 | 33.58456 | 468 ft | 16 kts | 151° |
| 2026-04-21 16:59 | 67.46028 | 33.58544 | 467 ft | 2 kts | 227° |
| 2026-04-21 16:59 | 67.45999 | 33.58479 | 467 ft | 9 kts | 221° |
| 2026-04-21 17:00 | 67.45984 | 33.58407 | 467 ft | 4 kts | 294° |
| 2026-04-21 17:00 | 67.46002 | 33.58336 | 468 ft | 0 kts | 309° |